sensor_id;sensor_type;location;lat;lon;timestamp;P1;durP1;ratioP1;P2;durP2;ratioP2
21183;SDS011;18176;49.502;11.754;2024-03-08T00:00:17;38.77;;;19.70;;
21183;SDS011;18176;49.502;11.754;2024-03-08T00:04:41;41.13;;;19.27;;
21183;SDS011;18176;49.502;11.754;2024-03-08T00:09:01;38.57;;;19.73;;
21183;SDS011;18176;49.502;11.754;2024-03-08T00:13:25;40.20;;;19.53;;
21183;SDS011;18176;49.502;11.754;2024-03-08T00:17:45;40.53;;;20.27;;
21183;SDS011;18176;49.502;11.754;2024-03-08T00:22:09;39.47;;;18.93;;
21183;SDS011;18176;49.502;11.754;2024-03-08T00:26:30;40.17;;;18.97;;
21183;SDS011;18176;49.502;11.754;2024-03-08T00:30:51;35.23;;;17.90;;
21183;SDS011;18176;49.502;11.754;2024-03-08T00:35:12;35.10;;;17.67;;
21183;SDS011;18176;49.502;11.754;2024-03-08T00:39:35;40.70;;;18.70;;
21183;SDS011;18176;49.502;11.754;2024-03-08T00:43:56;40.73;;;19.30;;
21183;SDS011;18176;49.502;11.754;2024-03-08T00:48:17;40.57;;;19.87;;
21183;SDS011;18176;49.502;11.754;2024-03-08T00:52:38;41.97;;;20.57;;
21183;SDS011;18176;49.502;11.754;2024-03-08T00:57:02;42.40;;;21.53;;
21183;SDS011;18176;49.502;11.754;2024-03-08T01:01:24;41.97;;;21.13;;
21183;SDS011;18176;49.502;11.754;2024-03-08T01:05:45;39.13;;;19.80;;
21183;SDS011;18176;49.502;11.754;2024-03-08T01:10:06;36.17;;;18.93;;
21183;SDS011;18176;49.502;11.754;2024-03-08T01:14:31;39.60;;;20.17;;
21183;SDS011;18176;49.502;11.754;2024-03-08T01:18:52;42.30;;;20.07;;
21183;SDS011;18176;49.502;11.754;2024-03-08T01:23:13;39.13;;;20.73;;
21183;SDS011;18176;49.502;11.754;2024-03-08T01:27:34;45.60;;;21.03;;
21183;SDS011;18176;49.502;11.754;2024-03-08T01:31:57;40.13;;;19.90;;
21183;SDS011;18176;49.502;11.754;2024-03-08T01:36:18;40.40;;;20.10;;
21183;SDS011;18176;49.502;11.754;2024-03-08T01:40:39;36.50;;;18.50;;
21183;SDS011;18176;49.502;11.754;2024-03-08T01:45:00;37.27;;;18.43;;
21183;SDS011;18176;49.502;11.754;2024-03-08T01:49:24;37.90;;;19.50;;
21183;SDS011;18176;49.502;11.754;2024-03-08T01:53:47;40.73;;;19.37;;
21183;SDS011;18176;49.502;11.754;2024-03-08T01:58:09;39.00;;;19.70;;
21183;SDS011;18176;49.502;11.754;2024-03-08T02:02:32;37.93;;;19.37;;
21183;SDS011;18176;49.502;11.754;2024-03-08T02:06:56;38.57;;;19.47;;
21183;SDS011;18176;49.502;11.754;2024-03-08T02:11:17;39.77;;;20.17;;
21183;SDS011;18176;49.502;11.754;2024-03-08T02:15:51;42.50;;;20.27;;
21183;SDS011;18176;49.502;11.754;2024-03-08T02:20:13;41.87;;;20.90;;
21183;SDS011;18176;49.502;11.754;2024-03-08T02:24:39;39.80;;;20.33;;
21183;SDS011;18176;49.502;11.754;2024-03-08T02:28:59;42.30;;;21.83;;
21183;SDS011;18176;49.502;11.754;2024-03-08T02:33:22;43.07;;;20.17;;
21183;SDS011;18176;49.502;11.754;2024-03-08T02:37:44;44.77;;;20.93;;
21183;SDS011;18176;49.502;11.754;2024-03-08T02:42:07;38.77;;;20.97;;
21183;SDS011;18176;49.502;11.754;2024-03-08T02:46:28;43.23;;;20.60;;
21183;SDS011;18176;49.502;11.754;2024-03-08T02:50:49;44.17;;;22.43;;
21183;SDS011;18176;49.502;11.754;2024-03-08T02:55:10;44.07;;;22.10;;
21183;SDS011;18176;49.502;11.754;2024-03-08T02:59:36;45.70;;;22.80;;
21183;SDS011;18176;49.502;11.754;2024-03-08T03:03:57;51.10;;;25.27;;
21183;SDS011;18176;49.502;11.754;2024-03-08T03:08:17;51.00;;;25.03;;
21183;SDS011;18176;49.502;11.754;2024-03-08T03:12:38;46.63;;;23.50;;
21183;SDS011;18176;49.502;11.754;2024-03-08T03:17:01;41.27;;;22.50;;
21183;SDS011;18176;49.502;11.754;2024-03-08T03:21:22;44.63;;;23.13;;
21183;SDS011;18176;49.502;11.754;2024-03-08T03:25:43;49.63;;;23.97;;
21183;SDS011;18176;49.502;11.754;2024-03-08T03:30:07;49.03;;;23.53;;
21183;SDS011;18176;49.502;11.754;2024-03-08T03:34:43;43.37;;;23.03;;
21183;SDS011;18176;49.502;11.754;2024-03-08T03:39:04;49.10;;;23.73;;
21183;SDS011;18176;49.502;11.754;2024-03-08T03:43:29;47.30;;;23.37;;
21183;SDS011;18176;49.502;11.754;2024-03-08T03:47:50;46.23;;;21.80;;
21183;SDS011;18176;49.502;11.754;2024-03-08T03:52:14;45.60;;;22.60;;
21183;SDS011;18176;49.502;11.754;2024-03-08T03:56:35;46.40;;;23.03;;
21183;SDS011;18176;49.502;11.754;2024-03-08T04:00:56;48.23;;;23.80;;
21183;SDS011;18176;49.502;11.754;2024-03-08T04:05:17;51.40;;;24.93;;
21183;SDS011;18176;49.502;11.754;2024-03-08T04:09:41;50.40;;;25.50;;
21183;SDS011;18176;49.502;11.754;2024-03-08T04:14:01;48.47;;;24.27;;
21183;SDS011;18176;49.502;11.754;2024-03-08T04:18:22;52.37;;;26.00;;
21183;SDS011;18176;49.502;11.754;2024-03-08T04:22:43;55.43;;;25.70;;
21183;SDS011;18176;49.502;11.754;2024-03-08T04:27:09;58.00;;;27.70;;
21183;SDS011;18176;49.502;11.754;2024-03-08T04:31:30;58.27;;;27.93;;
21183;SDS011;18176;49.502;11.754;2024-03-08T04:35:50;54.87;;;26.40;;
21183;SDS011;18176;49.502;11.754;2024-03-08T04:40:11;56.20;;;28.03;;
21183;SDS011;18176;49.502;11.754;2024-03-08T04:44:34;57.57;;;27.93;;
21183;SDS011;18176;49.502;11.754;2024-03-08T04:48:55;58.83;;;26.77;;
21183;SDS011;18176;49.502;11.754;2024-03-08T04:53:16;54.07;;;26.53;;
21183;SDS011;18176;49.502;11.754;2024-03-08T04:57:37;55.40;;;26.63;;
21183;SDS011;18176;49.502;11.754;2024-03-08T05:02:01;59.57;;;27.50;;
21183;SDS011;18176;49.502;11.754;2024-03-08T05:06:24;60.53;;;29.73;;
21183;SDS011;18176;49.502;11.754;2024-03-08T05:10:45;60.23;;;28.43;;
21183;SDS011;18176;49.502;11.754;2024-03-08T05:15:07;59.73;;;27.70;;
21183;SDS011;18176;49.502;11.754;2024-03-08T05:19:30;67.37;;;29.17;;
21183;SDS011;18176;49.502;11.754;2024-03-08T05:23:54;59.80;;;28.57;;
21183;SDS011;18176;49.502;11.754;2024-03-08T05:28:15;59.70;;;29.87;;
21183;SDS011;18176;49.502;11.754;2024-03-08T05:32:37;54.77;;;27.83;;
21183;SDS011;18176;49.502;11.754;2024-03-08T05:37:00;53.67;;;27.03;;
21183;SDS011;18176;49.502;11.754;2024-03-08T05:41:21;57.37;;;28.30;;
21183;SDS011;18176;49.502;11.754;2024-03-08T05:45:42;60.87;;;26.93;;
21183;SDS011;18176;49.502;11.754;2024-03-08T05:50:03;59.10;;;28.63;;
21183;SDS011;18176;49.502;11.754;2024-03-08T05:54:30;59.37;;;28.57;;
21183;SDS011;18176;49.502;11.754;2024-03-08T05:58:51;58.93;;;28.53;;
21183;SDS011;18176;49.502;11.754;2024-03-08T06:03:11;69.80;;;30.80;;
21183;SDS011;18176;49.502;11.754;2024-03-08T06:07:32;68.47;;;31.97;;
21183;SDS011;18176;49.502;11.754;2024-03-08T06:11:55;63.00;;;29.50;;
21183;SDS011;18176;49.502;11.754;2024-03-08T06:16:16;73.33;;;33.47;;
21183;SDS011;18176;49.502;11.754;2024-03-08T06:20:36;65.97;;;30.73;;
21183;SDS011;18176;49.502;11.754;2024-03-08T06:25:00;56.73;;;28.93;;
21183;SDS011;18176;49.502;11.754;2024-03-08T06:29:24;65.40;;;30.57;;
21183;SDS011;18176;49.502;11.754;2024-03-08T06:33:44;67.10;;;31.03;;
21183;SDS011;18176;49.502;11.754;2024-03-08T06:38:06;65.00;;;30.33;;
21183;SDS011;18176;49.502;11.754;2024-03-08T06:42:28;63.23;;;29.23;;
21183;SDS011;18176;49.502;11.754;2024-03-08T06:46:53;64.23;;;30.57;;
21183;SDS011;18176;49.502;11.754;2024-03-08T06:51:17;62.13;;;29.93;;
21183;SDS011;18176;49.502;11.754;2024-03-08T06:55:38;61.97;;;30.73;;
21183;SDS011;18176;49.502;11.754;2024-03-08T06:59:59;66.20;;;31.60;;
21183;SDS011;18176;49.502;11.754;2024-03-08T07:04:22;61.07;;;29.27;;
21183;SDS011;18176;49.502;11.754;2024-03-08T07:08:45;59.10;;;30.13;;
21183;SDS011;18176;49.502;11.754;2024-03-08T07:13:06;67.43;;;31.10;;
21183;SDS011;18176;49.502;11.754;2024-03-08T07:17:27;58.10;;;29.30;;
21183;SDS011;18176;49.502;11.754;2024-03-08T07:21:50;62.73;;;28.33;;
21183;SDS011;18176;49.502;11.754;2024-03-08T07:26:14;58.60;;;27.50;;
21183;SDS011;18176;49.502;11.754;2024-03-08T07:30:36;52.43;;;27.00;;
21183;SDS011;18176;49.502;11.754;2024-03-08T07:35:25;53.17;;;25.73;;
21183;SDS011;18176;49.502;11.754;2024-03-08T07:39:48;48.50;;;24.73;;
21183;SDS011;18176;49.502;11.754;2024-03-08T07:44:08;50.97;;;25.83;;
21183;SDS011;18176;49.502;11.754;2024-03-08T07:48:31;48.03;;;23.67;;
21183;SDS011;18176;49.502;11.754;2024-03-08T07:52:52;42.63;;;23.13;;
21183;SDS011;18176;49.502;11.754;2024-03-08T07:57:15;46.70;;;24.83;;
21183;SDS011;18176;49.502;11.754;2024-03-08T08:01:36;40.93;;;22.27;;
21183;SDS011;18176;49.502;11.754;2024-03-08T08:05:57;40.80;;;22.27;;
21183;SDS011;18176;49.502;11.754;2024-03-08T08:10:18;36.00;;;21.33;;
21183;SDS011;18176;49.502;11.754;2024-03-08T08:14:45;40.53;;;23.30;;
21183;SDS011;18176;49.502;11.754;2024-03-08T08:19:07;41.37;;;21.87;;
21183;SDS011;18176;49.502;11.754;2024-03-08T08:23:31;36.53;;;20.90;;
21183;SDS011;18176;49.502;11.754;2024-03-08T08:27:51;40.37;;;21.70;;
21183;SDS011;18176;49.502;11.754;2024-03-08T08:32:15;38.07;;;21.67;;
21183;SDS011;18176;49.502;11.754;2024-03-08T08:36:37;35.03;;;19.97;;
21183;SDS011;18176;49.502;11.754;2024-03-08T08:40:57;39.43;;;20.27;;
21183;SDS011;18176;49.502;11.754;2024-03-08T08:45:19;38.47;;;20.40;;
21183;SDS011;18176;49.502;11.754;2024-03-08T08:49:45;34.53;;;20.43;;
21183;SDS011;18176;49.502;11.754;2024-03-08T08:54:08;36.23;;;20.40;;
21183;SDS011;18176;49.502;11.754;2024-03-08T08:58:31;34.10;;;19.40;;
21183;SDS011;18176;49.502;11.754;2024-03-08T09:02:52;29.03;;;18.53;;
21183;SDS011;18176;49.502;11.754;2024-03-08T09:07:18;32.70;;;19.63;;
21183;SDS011;18176;49.502;11.754;2024-03-08T09:11:39;28.33;;;17.33;;
21183;SDS011;18176;49.502;11.754;2024-03-08T09:16:00;28.77;;;16.07;;
21183;SDS011;18176;49.502;11.754;2024-03-08T09:20:23;25.23;;;15.93;;
21183;SDS011;18176;49.502;11.754;2024-03-08T09:24:46;29.23;;;17.17;;
21183;SDS011;18176;49.502;11.754;2024-03-08T09:29:07;26.57;;;15.87;;
21183;SDS011;18176;49.502;11.754;2024-03-08T09:33:28;26.60;;;15.67;;
21183;SDS011;18176;49.502;11.754;2024-03-08T09:37:52;27.07;;;15.63;;
21183;SDS011;18176;49.502;11.754;2024-03-08T09:42:15;28.03;;;15.70;;
21183;SDS011;18176;49.502;11.754;2024-03-08T09:46:36;27.53;;;16.33;;
21183;SDS011;18176;49.502;11.754;2024-03-08T09:50:57;26.30;;;16.13;;
21183;SDS011;18176;49.502;11.754;2024-03-08T09:55:18;27.17;;;16.60;;
21183;SDS011;18176;49.502;11.754;2024-03-08T09:59:42;24.03;;;14.20;;
21183;SDS011;18176;49.502;11.754;2024-03-08T10:04:05;25.13;;;14.70;;
21183;SDS011;18176;49.502;11.754;2024-03-08T10:08:27;23.17;;;13.73;;
21183;SDS011;18176;49.502;11.754;2024-03-08T10:12:48;21.80;;;14.37;;
21183;SDS011;18176;49.502;11.754;2024-03-08T10:17:12;25.47;;;14.97;;
21183;SDS011;18176;49.502;11.754;2024-03-08T10:21:32;21.30;;;14.00;;
21183;SDS011;18176;49.502;11.754;2024-03-08T10:25:53;23.90;;;15.07;;
21183;SDS011;18176;49.502;11.754;2024-03-08T10:30:15;21.80;;;14.18;;
21183;SDS011;18176;49.502;11.754;2024-03-08T10:34:41;21.20;;;13.73;;
21183;SDS011;18176;49.502;11.754;2024-03-08T10:39:02;21.58;;;14.02;;
21183;SDS011;18176;49.502;11.754;2024-03-08T10:43:32;19.70;;;13.32;;
21183;SDS011;18176;49.502;11.754;2024-03-08T10:48:26;20.58;;;12.93;;
21183;SDS011;18176;49.502;11.754;2024-03-08T10:52:58;19.60;;;13.07;;
21183;SDS011;18176;49.502;11.754;2024-03-08T10:57:21;19.00;;;12.73;;
21183;SDS011;18176;49.502;11.754;2024-03-08T11:01:44;17.30;;;12.20;;
21183;SDS011;18176;49.502;11.754;2024-03-08T11:06:10;18.48;;;12.05;;
21183;SDS011;18176;49.502;11.754;2024-03-08T11:10:48;17.73;;;12.00;;
21183;SDS011;18176;49.502;11.754;2024-03-08T11:15:13;17.58;;;12.13;;
21183;SDS011;18176;49.502;11.754;2024-03-08T11:19:36;18.65;;;12.80;;
21183;SDS011;18176;49.502;11.754;2024-03-08T11:23:58;22.10;;;14.52;;
21183;SDS011;18176;49.502;11.754;2024-03-08T11:28:23;19.48;;;12.55;;
21183;SDS011;18176;49.502;11.754;2024-03-08T11:32:44;20.70;;;12.80;;
21183;SDS011;18176;49.502;11.754;2024-03-08T11:37:07;27.98;;;16.30;;
21183;SDS011;18176;49.502;11.754;2024-03-08T11:41:32;20.67;;;13.88;;
21183;SDS011;18176;49.502;11.754;2024-03-08T11:50:33;15.45;;;10.40;;
21183;SDS011;18176;49.502;11.754;2024-03-08T11:54:55;22.50;;;13.77;;
21183;SDS011;18176;49.502;11.754;2024-03-08T11:59:16;25.05;;;15.07;;
21183;SDS011;18176;49.502;11.754;2024-03-08T12:03:39;22.60;;;13.82;;
21183;SDS011;18176;49.502;11.754;2024-03-08T12:08:00;14.27;;;10.55;;
21183;SDS011;18176;49.502;11.754;2024-03-08T12:12:24;26.63;;;15.20;;
21183;SDS011;18176;49.502;11.754;2024-03-08T12:16:45;19.23;;;12.27;;
21183;SDS011;18176;49.502;11.754;2024-03-08T12:21:10;14.90;;;10.68;;
21183;SDS011;18176;49.502;11.754;2024-03-08T12:25:36;23.25;;;13.98;;
21183;SDS011;18176;49.502;11.754;2024-03-08T12:29:57;16.15;;;10.50;;
21183;SDS011;18176;49.502;11.754;2024-03-08T12:34:18;16.23;;;10.80;;
21183;SDS011;18176;49.502;11.754;2024-03-08T12:38:41;13.13;;;10.05;;
21183;SDS011;18176;49.502;11.754;2024-03-08T12:43:04;12.68;;;9.65;;
21183;SDS011;18176;49.502;11.754;2024-03-08T12:47:25;12.93;;;9.02;;
21183;SDS011;18176;49.502;11.754;2024-03-08T12:51:47;16.00;;;10.07;;
21183;SDS011;18176;49.502;11.754;2024-03-08T12:56:13;18.38;;;11.93;;
21183;SDS011;18176;49.502;11.754;2024-03-08T13:00:47;16.27;;;10.35;;
21183;SDS011;18176;49.502;11.754;2024-03-08T13:05:10;11.95;;;8.88;;
21183;SDS011;18176;49.502;11.754;2024-03-08T13:09:31;13.52;;;9.18;;
21183;SDS011;18176;49.502;11.754;2024-03-08T13:13:57;19.70;;;12.90;;
21183;SDS011;18176;49.502;11.754;2024-03-08T13:18:18;15.35;;;10.45;;
21183;SDS011;18176;49.502;11.754;2024-03-08T13:22:38;13.15;;;9.35;;
21183;SDS011;18176;49.502;11.754;2024-03-08T13:26:59;12.15;;;8.93;;
21183;SDS011;18176;49.502;11.754;2024-03-08T13:31:36;12.25;;;8.80;;
21183;SDS011;18176;49.502;11.754;2024-03-08T13:35:56;25.75;;;15.85;;
21183;SDS011;18176;49.502;11.754;2024-03-08T13:40:21;18.60;;;13.07;;
21183;SDS011;18176;49.502;11.754;2024-03-08T13:44:43;32.28;;;17.13;;
21183;SDS011;18176;49.502;11.754;2024-03-08T13:49:07;18.10;;;11.48;;
21183;SDS011;18176;49.502;11.754;2024-03-08T13:53:28;13.10;;;9.55;;
21183;SDS011;18176;49.502;11.754;2024-03-08T13:57:49;19.42;;;11.77;;
21183;SDS011;18176;49.502;11.754;2024-03-08T14:02:11;15.18;;;9.45;;
21183;SDS011;18176;49.502;11.754;2024-03-08T14:06:34;15.55;;;10.32;;
21183;SDS011;18176;49.502;11.754;2024-03-08T14:10:55;15.98;;;10.40;;
21183;SDS011;18176;49.502;11.754;2024-03-08T14:15:15;13.52;;;10.02;;
21183;SDS011;18176;49.502;11.754;2024-03-08T14:19:37;16.98;;;9.65;;
21183;SDS011;18176;49.502;11.754;2024-03-08T14:24:01;12.82;;;9.13;;
21183;SDS011;18176;49.502;11.754;2024-03-08T14:28:22;13.18;;;8.98;;
21183;SDS011;18176;49.502;11.754;2024-03-08T14:32:44;13.52;;;9.55;;
21183;SDS011;18176;49.502;11.754;2024-03-08T14:37:04;14.32;;;9.60;;
21183;SDS011;18176;49.502;11.754;2024-03-08T14:41:31;12.15;;;8.60;;
21183;SDS011;18176;49.502;11.754;2024-03-08T14:45:52;12.85;;;8.70;;
21183;SDS011;18176;49.502;11.754;2024-03-08T14:50:13;15.25;;;9.68;;
21183;SDS011;18176;49.502;11.754;2024-03-08T14:54:34;15.70;;;9.88;;
21183;SDS011;18176;49.502;11.754;2024-03-08T14:58:59;14.27;;;9.75;;
21183;SDS011;18176;49.502;11.754;2024-03-08T15:03:22;27.45;;;13.02;;
21183;SDS011;18176;49.502;11.754;2024-03-08T15:07:43;12.60;;;8.68;;
21183;SDS011;18176;49.502;11.754;2024-03-08T15:12:05;13.65;;;8.60;;
21183;SDS011;18176;49.502;11.754;2024-03-08T15:16:29;22.48;;;9.77;;
21183;SDS011;18176;49.502;11.754;2024-03-08T15:20:52;14.20;;;9.32;;
21183;SDS011;18176;49.502;11.754;2024-03-08T15:25:13;15.55;;;9.52;;
21183;SDS011;18176;49.502;11.754;2024-03-08T15:29:37;13.25;;;9.02;;
21183;SDS011;18176;49.502;11.754;2024-03-08T15:34:02;11.98;;;8.77;;
21183;SDS011;18176;49.502;11.754;2024-03-08T15:38:24;17.77;;;10.02;;
21183;SDS011;18176;49.502;11.754;2024-03-08T15:42:49;16.25;;;10.15;;
21183;SDS011;18176;49.502;11.754;2024-03-08T15:47:15;11.90;;;8.88;;
21183;SDS011;18176;49.502;11.754;2024-03-08T15:51:39;15.25;;;9.95;;
21183;SDS011;18176;49.502;11.754;2024-03-08T15:56:00;19.00;;;9.73;;
21183;SDS011;18176;49.502;11.754;2024-03-08T16:00:23;19.05;;;10.38;;
21183;SDS011;18176;49.502;11.754;2024-03-08T16:04:53;25.30;;;11.70;;
21183;SDS011;18176;49.502;11.754;2024-03-08T16:09:16;16.25;;;10.40;;
21183;SDS011;18176;49.502;11.754;2024-03-08T16:13:37;16.17;;;11.18;;
21183;SDS011;18176;49.502;11.754;2024-03-08T16:17:58;16.02;;;10.40;;
21183;SDS011;18176;49.502;11.754;2024-03-08T16:22:22;14.40;;;10.07;;
21183;SDS011;18176;49.502;11.754;2024-03-08T16:26:46;15.70;;;11.05;;
21183;SDS011;18176;49.502;11.754;2024-03-08T16:31:09;14.73;;;10.13;;
21183;SDS011;18176;49.502;11.754;2024-03-08T16:35:31;16.38;;;10.65;;
21183;SDS011;18176;49.502;11.754;2024-03-08T16:39:53;15.33;;;10.43;;
21183;SDS011;18176;49.502;11.754;2024-03-08T16:44:18;19.53;;;11.47;;
21183;SDS011;18176;49.502;11.754;2024-03-08T16:48:41;18.93;;;11.40;;
21183;SDS011;18176;49.502;11.754;2024-03-08T16:53:02;17.73;;;11.70;;
21183;SDS011;18176;49.502;11.754;2024-03-08T16:57:23;17.63;;;11.30;;
21183;SDS011;18176;49.502;11.754;2024-03-08T17:01:48;21.50;;;11.90;;
21183;SDS011;18176;49.502;11.754;2024-03-08T17:06:09;15.83;;;10.33;;
21183;SDS011;18176;49.502;11.754;2024-03-08T17:10:33;18.57;;;12.00;;
21183;SDS011;18176;49.502;11.754;2024-03-08T17:14:57;18.07;;;11.87;;
21183;SDS011;18176;49.502;11.754;2024-03-08T17:19:21;17.60;;;11.33;;
21183;SDS011;18176;49.502;11.754;2024-03-08T17:23:43;16.33;;;10.10;;
21183;SDS011;18176;49.502;11.754;2024-03-08T17:28:04;17.73;;;11.20;;
21183;SDS011;18176;49.502;11.754;2024-03-08T17:32:29;19.90;;;10.80;;
21183;SDS011;18176;49.502;11.754;2024-03-08T17:36:53;20.37;;;11.10;;
21183;SDS011;18176;49.502;11.754;2024-03-08T17:41:15;20.37;;;11.37;;
21183;SDS011;18176;49.502;11.754;2024-03-08T17:45:41;17.40;;;10.93;;
21183;SDS011;18176;49.502;11.754;2024-03-08T17:50:04;18.97;;;12.03;;
21183;SDS011;18176;49.502;11.754;2024-03-08T17:54:34;18.27;;;11.77;;
21183;SDS011;18176;49.502;11.754;2024-03-08T17:58:55;18.93;;;11.43;;
21183;SDS011;18176;49.502;11.754;2024-03-08T18:03:15;19.60;;;11.93;;
21183;SDS011;18176;49.502;11.754;2024-03-08T18:07:36;20.40;;;11.90;;
21183;SDS011;18176;49.502;11.754;2024-03-08T18:12:00;20.90;;;12.20;;
21183;SDS011;18176;49.502;11.754;2024-03-08T18:16:21;20.77;;;12.23;;
21183;SDS011;18176;49.502;11.754;2024-03-08T18:20:42;22.70;;;12.47;;
21183;SDS011;18176;49.502;11.754;2024-03-08T18:25:06;24.77;;;13.63;;
21183;SDS011;18176;49.502;11.754;2024-03-08T18:29:35;22.23;;;13.07;;
21183;SDS011;18176;49.502;11.754;2024-03-08T18:33:57;22.13;;;12.80;;
21183;SDS011;18176;49.502;11.754;2024-03-08T18:38:18;21.80;;;13.00;;
21183;SDS011;18176;49.502;11.754;2024-03-08T18:42:40;26.33;;;14.43;;
21183;SDS011;18176;49.502;11.754;2024-03-08T18:47:05;24.17;;;13.97;;
21183;SDS011;18176;49.502;11.754;2024-03-08T18:51:26;24.53;;;13.80;;
21183;SDS011;18176;49.502;11.754;2024-03-08T18:55:47;24.70;;;13.73;;
21183;SDS011;18176;49.502;11.754;2024-03-08T19:00:09;25.40;;;14.00;;
21183;SDS011;18176;49.502;11.754;2024-03-08T19:04:40;22.63;;;13.10;;
21183;SDS011;18176;49.502;11.754;2024-03-08T19:09:01;24.20;;;13.37;;
21183;SDS011;18176;49.502;11.754;2024-03-08T19:13:26;23.07;;;14.17;;
21183;SDS011;18176;49.502;11.754;2024-03-08T19:17:48;25.63;;;14.37;;
21183;SDS011;18176;49.502;11.754;2024-03-08T19:22:13;25.60;;;13.97;;
21183;SDS011;18176;49.502;11.754;2024-03-08T19:26:34;25.60;;;14.60;;
21183;SDS011;18176;49.502;11.754;2024-03-08T19:30:55;26.77;;;15.43;;
21183;SDS011;18176;49.502;11.754;2024-03-08T19:35:16;25.63;;;14.60;;
21183;SDS011;18176;49.502;11.754;2024-03-08T19:39:41;25.10;;;14.03;;
21183;SDS011;18176;49.502;11.754;2024-03-08T19:44:02;24.40;;;14.13;;
21183;SDS011;18176;49.502;11.754;2024-03-08T19:48:25;26.57;;;14.63;;
21183;SDS011;18176;49.502;11.754;2024-03-08T19:52:46;26.27;;;13.67;;
21183;SDS011;18176;49.502;11.754;2024-03-08T19:57:12;23.97;;;13.60;;
21183;SDS011;18176;49.502;11.754;2024-03-08T20:01:32;24.57;;;13.50;;
21183;SDS011;18176;49.502;11.754;2024-03-08T20:05:53;22.43;;;13.73;;
21183;SDS011;18176;49.502;11.754;2024-03-08T20:10:15;24.67;;;13.83;;
21183;SDS011;18176;49.502;11.754;2024-03-08T20:14:40;23.73;;;13.67;;
21183;SDS011;18176;49.502;11.754;2024-03-08T20:19:01;24.23;;;14.10;;
21183;SDS011;18176;49.502;11.754;2024-03-08T20:23:21;24.30;;;13.67;;
21183;SDS011;18176;49.502;11.754;2024-03-08T20:27:43;23.27;;;13.63;;
21183;SDS011;18176;49.502;11.754;2024-03-08T20:32:11;23.50;;;13.10;;
21183;SDS011;18176;49.502;11.754;2024-03-08T20:36:32;23.63;;;13.93;;
21183;SDS011;18176;49.502;11.754;2024-03-08T20:40:53;24.37;;;13.50;;
21183;SDS011;18176;49.502;11.754;2024-03-08T20:45:14;23.80;;;13.53;;
21183;SDS011;18176;49.502;11.754;2024-03-08T20:49:38;21.80;;;13.03;;
21183;SDS011;18176;49.502;11.754;2024-03-08T20:54:00;21.97;;;12.40;;
21183;SDS011;18176;49.502;11.754;2024-03-08T20:58:22;21.37;;;12.40;;
21183;SDS011;18176;49.502;11.754;2024-03-08T21:02:43;23.40;;;13.50;;
21183;SDS011;18176;49.502;11.754;2024-03-08T21:07:06;23.30;;;13.13;;
21183;SDS011;18176;49.502;11.754;2024-03-08T21:11:29;22.37;;;12.30;;
21183;SDS011;18176;49.502;11.754;2024-03-08T21:15:50;24.10;;;13.00;;
21183;SDS011;18176;49.502;11.754;2024-03-08T21:20:13;24.33;;;13.37;;
21183;SDS011;18176;49.502;11.754;2024-03-08T21:24:37;24.53;;;13.20;;
21183;SDS011;18176;49.502;11.754;2024-03-08T21:28:58;26.13;;;14.40;;
21183;SDS011;18176;49.502;11.754;2024-03-08T21:33:20;23.87;;;13.50;;
21183;SDS011;18176;49.502;11.754;2024-03-08T21:37:42;22.57;;;13.63;;
21183;SDS011;18176;49.502;11.754;2024-03-08T21:42:05;25.17;;;13.40;;
21183;SDS011;18176;49.502;11.754;2024-03-08T21:46:26;23.30;;;13.03;;
21183;SDS011;18176;49.502;11.754;2024-03-08T21:50:47;21.73;;;12.93;;
21183;SDS011;18176;49.502;11.754;2024-03-08T21:55:08;22.83;;;12.70;;
21183;SDS011;18176;49.502;11.754;2024-03-08T21:59:34;22.07;;;12.40;;
21183;SDS011;18176;49.502;11.754;2024-03-08T22:03:58;20.63;;;12.03;;
21183;SDS011;18176;49.502;11.754;2024-03-08T22:08:20;23.17;;;12.17;;
21183;SDS011;18176;49.502;11.754;2024-03-08T22:12:41;21.73;;;11.70;;
21183;SDS011;18176;49.502;11.754;2024-03-08T22:17:04;21.83;;;12.23;;
21183;SDS011;18176;49.502;11.754;2024-03-08T22:21:26;23.97;;;12.47;;
21183;SDS011;18176;49.502;11.754;2024-03-08T22:25:48;28.13;;;14.07;;
21183;SDS011;18176;49.502;11.754;2024-03-08T22:30:10;26.80;;;12.70;;
21183;SDS011;18176;49.502;11.754;2024-03-08T22:34:35;24.37;;;12.90;;
21183;SDS011;18176;49.502;11.754;2024-03-08T22:38:56;28.13;;;13.83;;
21183;SDS011;18176;49.502;11.754;2024-03-08T22:43:16;26.87;;;13.60;;
21183;SDS011;18176;49.502;11.754;2024-03-08T22:47:37;22.27;;;12.03;;
21183;SDS011;18176;49.502;11.754;2024-03-08T22:52:03;21.67;;;12.10;;
21183;SDS011;18176;49.502;11.754;2024-03-08T22:56:24;22.23;;;11.53;;
21183;SDS011;18176;49.502;11.754;2024-03-08T23:00:45;23.13;;;11.53;;
21183;SDS011;18176;49.502;11.754;2024-03-08T23:05:22;23.33;;;12.03;;
21183;SDS011;18176;49.502;11.754;2024-03-08T23:09:47;21.57;;;11.97;;
21183;SDS011;18176;49.502;11.754;2024-03-08T23:14:08;22.17;;;12.03;;
21183;SDS011;18176;49.502;11.754;2024-03-08T23:18:30;23.03;;;11.93;;
21183;SDS011;18176;49.502;11.754;2024-03-08T23:22:51;27.33;;;13.07;;
21183;SDS011;18176;49.502;11.754;2024-03-08T23:27:14;36.97;;;16.07;;
21183;SDS011;18176;49.502;11.754;2024-03-08T23:31:35;44.53;;;20.70;;
21183;SDS011;18176;49.502;11.754;2024-03-08T23:35:56;44.00;;;21.70;;
21183;SDS011;18176;49.502;11.754;2024-03-08T23:40:17;35.80;;;17.83;;
21183;SDS011;18176;49.502;11.754;2024-03-08T23:44:43;24.73;;;13.57;;
21183;SDS011;18176;49.502;11.754;2024-03-08T23:49:04;26.03;;;12.60;;
21183;SDS011;18176;49.502;11.754;2024-03-08T23:53:25;26.27;;;13.50;;
21183;SDS011;18176;49.502;11.754;2024-03-08T23:57:46;23.33;;;12.80;;
